sensor_id;sensor_type;location;lat;lon;timestamp;P1;durP1;ratioP1;P2;durP2;ratioP2
55053;SDS011;40954;45.668;18.980;2022-08-19T00:00:35;10.20;;;5.75;;
55053;SDS011;40954;45.668;18.980;2022-08-19T00:03:01;8.85;;;6.05;;
55053;SDS011;40954;45.668;18.980;2022-08-19T00:05:27;12.68;;;7.00;;
55053;SDS011;40954;45.668;18.980;2022-08-19T00:07:53;6.07;;;5.35;;
55053;SDS011;40954;45.668;18.980;2022-08-19T00:10:20;9.80;;;5.30;;
55053;SDS011;40954;45.668;18.980;2022-08-19T00:12:46;9.52;;;5.68;;
55053;SDS011;40954;45.668;18.980;2022-08-19T00:15:13;9.00;;;6.03;;
55053;SDS011;40954;45.668;18.980;2022-08-19T00:17:40;9.88;;;6.25;;
55053;SDS011;40954;45.668;18.980;2022-08-19T00:20:07;8.07;;;5.70;;
55053;SDS011;40954;45.668;18.980;2022-08-19T00:22:33;10.90;;;5.47;;
55053;SDS011;40954;45.668;18.980;2022-08-19T00:25:00;6.03;;;4.80;;
55053;SDS011;40954;45.668;18.980;2022-08-19T00:27:26;9.45;;;5.18;;
55053;SDS011;40954;45.668;18.980;2022-08-19T00:29:52;5.80;;;5.10;;
55053;SDS011;40954;45.668;18.980;2022-08-19T00:32:18;7.65;;;5.28;;
55053;SDS011;40954;45.668;18.980;2022-08-19T00:34:44;9.55;;;5.43;;
55053;SDS011;40954;45.668;18.980;2022-08-19T00:37:10;11.18;;;5.80;;
55053;SDS011;40954;45.668;18.980;2022-08-19T00:39:36;6.15;;;5.35;;
55053;SDS011;40954;45.668;18.980;2022-08-19T00:42:02;8.80;;;5.57;;
55053;SDS011;40954;45.668;18.980;2022-08-19T00:44:29;9.57;;;5.57;;
55053;SDS011;40954;45.668;18.980;2022-08-19T00:46:56;6.22;;;5.05;;
55053;SDS011;40954;45.668;18.980;2022-08-19T00:52:15;11.40;;;5.28;;
55053;SDS011;40954;45.668;18.980;2022-08-19T00:54:42;6.93;;;5.28;;
55053;SDS011;40954;45.668;18.980;2022-08-19T00:57:09;7.75;;;5.13;;
55053;SDS011;40954;45.668;18.980;2022-08-19T00:59:38;12.48;;;6.10;;
55053;SDS011;40954;45.668;18.980;2022-08-19T01:02:05;9.63;;;5.50;;
55053;SDS011;40954;45.668;18.980;2022-08-19T01:04:31;7.40;;;4.80;;
55053;SDS011;40954;45.668;18.980;2022-08-19T01:06:57;12.10;;;5.38;;
55053;SDS011;40954;45.668;18.980;2022-08-19T01:09:24;7.63;;;5.47;;
55053;SDS011;40954;45.668;18.980;2022-08-19T01:11:50;6.57;;;5.00;;
55053;SDS011;40954;45.668;18.980;2022-08-19T01:14:16;10.00;;;5.72;;
55053;SDS011;40954;45.668;18.980;2022-08-19T01:16:43;9.93;;;5.10;;
55053;SDS011;40954;45.668;18.980;2022-08-19T01:19:12;6.72;;;5.53;;
55053;SDS011;40954;45.668;18.980;2022-08-19T01:21:42;11.63;;;5.47;;
55053;SDS011;40954;45.668;18.980;2022-08-19T01:24:09;10.10;;;5.32;;
55053;SDS011;40954;45.668;18.980;2022-08-19T01:26:42;8.05;;;4.82;;
55053;SDS011;40954;45.668;18.980;2022-08-19T01:29:09;11.52;;;5.43;;
55053;SDS011;40954;45.668;18.980;2022-08-19T01:31:36;13.80;;;6.15;;
55053;SDS011;40954;45.668;18.980;2022-08-19T01:34:04;9.43;;;6.03;;
55053;SDS011;40954;45.668;18.980;2022-08-19T01:36:43;7.15;;;5.38;;
55053;SDS011;40954;45.668;18.980;2022-08-19T01:39:18;7.28;;;5.38;;
55053;SDS011;40954;45.668;18.980;2022-08-19T01:41:45;10.70;;;5.53;;
55053;SDS011;40954;45.668;18.980;2022-08-19T01:44:11;9.55;;;5.32;;
55053;SDS011;40954;45.668;18.980;2022-08-19T01:46:37;12.07;;;6.53;;
55053;SDS011;40954;45.668;18.980;2022-08-19T01:49:04;10.75;;;6.78;;
55053;SDS011;40954;45.668;18.980;2022-08-19T01:51:30;9.30;;;6.40;;
55053;SDS011;40954;45.668;18.980;2022-08-19T01:53:57;7.95;;;5.40;;
55053;SDS011;40954;45.668;18.980;2022-08-19T01:56:23;12.85;;;6.55;;
55053;SDS011;40954;45.668;18.980;2022-08-19T01:58:51;10.70;;;6.40;;
55053;SDS011;40954;45.668;18.980;2022-08-19T02:01:19;11.50;;;6.43;;
55053;SDS011;40954;45.668;18.980;2022-08-19T02:03:45;9.80;;;5.75;;
55053;SDS011;40954;45.668;18.980;2022-08-19T02:06:11;11.15;;;5.50;;
55053;SDS011;40954;45.668;18.980;2022-08-19T02:08:38;11.13;;;6.47;;
55053;SDS011;40954;45.668;18.980;2022-08-19T02:11:05;11.63;;;6.20;;
55053;SDS011;40954;45.668;18.980;2022-08-19T02:13:31;11.80;;;6.60;;
55053;SDS011;40954;45.668;18.980;2022-08-19T02:15:57;14.32;;;7.68;;
55053;SDS011;40954;45.668;18.980;2022-08-19T02:18:23;6.75;;;5.78;;
55053;SDS011;40954;45.668;18.980;2022-08-19T02:20:51;14.50;;;6.90;;
55053;SDS011;40954;45.668;18.980;2022-08-19T02:23:17;12.10;;;7.32;;
55053;SDS011;40954;45.668;18.980;2022-08-19T02:25:45;9.30;;;5.82;;
55053;SDS011;40954;45.668;18.980;2022-08-19T02:28:11;10.50;;;6.25;;
55053;SDS011;40954;45.668;18.980;2022-08-19T02:30:40;12.50;;;6.78;;
55053;SDS011;40954;45.668;18.980;2022-08-19T02:33:07;12.85;;;6.57;;
55053;SDS011;40954;45.668;18.980;2022-08-19T02:35:33;10.48;;;6.10;;
55053;SDS011;40954;45.668;18.980;2022-08-19T02:37:59;14.80;;;6.32;;
55053;SDS011;40954;45.668;18.980;2022-08-19T02:40:48;9.38;;;5.90;;
55053;SDS011;40954;45.668;18.980;2022-08-19T02:43:16;10.80;;;6.28;;
55053;SDS011;40954;45.668;18.980;2022-08-19T02:45:43;10.50;;;5.70;;
55053;SDS011;40954;45.668;18.980;2022-08-19T02:48:09;15.90;;;6.38;;
55053;SDS011;40954;45.668;18.980;2022-08-19T02:50:39;10.02;;;6.18;;
55053;SDS011;40954;45.668;18.980;2022-08-19T02:53:05;9.18;;;6.22;;
55053;SDS011;40954;45.668;18.980;2022-08-19T02:55:33;9.50;;;6.45;;
55053;SDS011;40954;45.668;18.980;2022-08-19T02:57:59;8.40;;;5.95;;
55053;SDS011;40954;45.668;18.980;2022-08-19T03:00:26;10.85;;;6.30;;
55053;SDS011;40954;45.668;18.980;2022-08-19T03:02:52;8.98;;;5.95;;
55053;SDS011;40954;45.668;18.980;2022-08-19T03:05:18;11.07;;;7.03;;
55053;SDS011;40954;45.668;18.980;2022-08-19T03:07:44;6.80;;;5.93;;
55053;SDS011;40954;45.668;18.980;2022-08-19T03:10:11;12.18;;;6.78;;
55053;SDS011;40954;45.668;18.980;2022-08-19T03:12:37;14.98;;;7.50;;
55053;SDS011;40954;45.668;18.980;2022-08-19T03:15:05;7.85;;;5.82;;
55053;SDS011;40954;45.668;18.980;2022-08-19T03:17:32;9.43;;;6.30;;
55053;SDS011;40954;45.668;18.980;2022-08-19T03:19:59;9.32;;;6.20;;
55053;SDS011;40954;45.668;18.980;2022-08-19T03:22:25;8.55;;;6.18;;
55053;SDS011;40954;45.668;18.980;2022-08-19T03:24:51;14.05;;;7.03;;
55053;SDS011;40954;45.668;18.980;2022-08-19T03:27:18;10.85;;;6.55;;
55053;SDS011;40954;45.668;18.980;2022-08-19T03:29:44;13.57;;;8.15;;
55053;SDS011;40954;45.668;18.980;2022-08-19T03:32:10;9.25;;;7.00;;
55053;SDS011;40954;45.668;18.980;2022-08-19T03:34:37;16.75;;;8.95;;
55053;SDS011;40954;45.668;18.980;2022-08-19T03:37:05;11.38;;;7.25;;
55053;SDS011;40954;45.668;18.980;2022-08-19T03:39:31;12.77;;;7.93;;
55053;SDS011;40954;45.668;18.980;2022-08-19T03:41:57;8.13;;;6.88;;
55053;SDS011;40954;45.668;18.980;2022-08-19T03:44:27;10.57;;;6.85;;
55053;SDS011;40954;45.668;18.980;2022-08-19T03:46:54;13.10;;;7.10;;
55053;SDS011;40954;45.668;18.980;2022-08-19T03:49:21;18.08;;;8.38;;
55053;SDS011;40954;45.668;18.980;2022-08-19T03:51:48;10.68;;;7.22;;
55053;SDS011;40954;45.668;18.980;2022-08-19T03:54:16;9.65;;;6.97;;
55053;SDS011;40954;45.668;18.980;2022-08-19T03:56:43;9.63;;;6.68;;
55053;SDS011;40954;45.668;18.980;2022-08-19T03:59:11;13.27;;;6.80;;
55053;SDS011;40954;45.668;18.980;2022-08-19T04:01:38;9.57;;;6.70;;
55053;SDS011;40954;45.668;18.980;2022-08-19T04:04:04;15.20;;;7.97;;
55053;SDS011;40954;45.668;18.980;2022-08-19T04:06:32;11.05;;;6.70;;
55053;SDS011;40954;45.668;18.980;2022-08-19T04:08:59;11.75;;;7.07;;
55053;SDS011;40954;45.668;18.980;2022-08-19T04:11:34;14.38;;;7.22;;
55053;SDS011;40954;45.668;18.980;2022-08-19T04:14:04;15.30;;;6.72;;
55053;SDS011;40954;45.668;18.980;2022-08-19T04:16:30;11.10;;;6.95;;
55053;SDS011;40954;45.668;18.980;2022-08-19T04:18:56;9.82;;;6.63;;
55053;SDS011;40954;45.668;18.980;2022-08-19T04:21:25;16.25;;;7.55;;
55053;SDS011;40954;45.668;18.980;2022-08-19T04:23:52;19.10;;;7.80;;
55053;SDS011;40954;45.668;18.980;2022-08-19T04:26:20;22.02;;;7.72;;
55053;SDS011;40954;45.668;18.980;2022-08-19T04:28:47;9.80;;;6.20;;
55053;SDS011;40954;45.668;18.980;2022-08-19T04:31:14;9.82;;;5.65;;
55053;SDS011;40954;45.668;18.980;2022-08-19T04:33:41;14.40;;;8.13;;
55053;SDS011;40954;45.668;18.980;2022-08-19T04:36:07;26.92;;;8.05;;
55053;SDS011;40954;45.668;18.980;2022-08-19T04:38:35;21.13;;;14.48;;
55053;SDS011;40954;45.668;18.980;2022-08-19T04:41:01;60.75;;;45.15;;
55053;SDS011;40954;45.668;18.980;2022-08-19T04:43:58;89.40;;;66.32;;
55053;SDS011;40954;45.668;18.980;2022-08-19T04:46:24;43.10;;;31.80;;
55053;SDS011;40954;45.668;18.980;2022-08-19T04:48:50;66.30;;;46.22;;
55053;SDS011;40954;45.668;18.980;2022-08-19T04:51:18;24.95;;;12.02;;
55053;SDS011;40954;45.668;18.980;2022-08-19T04:53:45;18.40;;;9.50;;
55053;SDS011;40954;45.668;18.980;2022-08-19T04:56:16;20.30;;;12.38;;
55053;SDS011;40954;45.668;18.980;2022-08-19T04:58:42;21.10;;;11.40;;
55053;SDS011;40954;45.668;18.980;2022-08-19T05:01:09;29.27;;;17.00;;
55053;SDS011;40954;45.668;18.980;2022-08-19T05:03:37;19.10;;;11.98;;
55053;SDS011;40954;45.668;18.980;2022-08-19T05:06:04;22.10;;;15.65;;
55053;SDS011;40954;45.668;18.980;2022-08-19T05:08:32;29.90;;;17.63;;
55053;SDS011;40954;45.668;18.980;2022-08-19T05:10:58;30.52;;;15.88;;
55053;SDS011;40954;45.668;18.980;2022-08-19T05:13:25;19.58;;;13.07;;
55053;SDS011;40954;45.668;18.980;2022-08-19T05:15:55;21.63;;;12.43;;
55053;SDS011;40954;45.668;18.980;2022-08-19T05:18:21;31.88;;;24.05;;
55053;SDS011;40954;45.668;18.980;2022-08-19T05:21:07;34.13;;;26.10;;
55053;SDS011;40954;45.668;18.980;2022-08-19T05:23:52;17.20;;;11.15;;
55053;SDS011;40954;45.668;18.980;2022-08-19T05:26:18;14.00;;;9.60;;
55053;SDS011;40954;45.668;18.980;2022-08-19T05:28:44;47.58;;;35.65;;
55053;SDS011;40954;45.668;18.980;2022-08-19T05:31:11;14.05;;;8.95;;
55053;SDS011;40954;45.668;18.980;2022-08-19T05:33:37;11.57;;;7.63;;
55053;SDS011;40954;45.668;18.980;2022-08-19T05:36:05;15.65;;;8.00;;
55053;SDS011;40954;45.668;18.980;2022-08-19T05:38:32;21.50;;;12.25;;
55053;SDS011;40954;45.668;18.980;2022-08-19T05:41:00;23.52;;;14.75;;
55053;SDS011;40954;45.668;18.980;2022-08-19T05:43:26;29.58;;;17.73;;
55053;SDS011;40954;45.668;18.980;2022-08-19T05:45:52;16.70;;;8.05;;
55053;SDS011;40954;45.668;18.980;2022-08-19T05:48:18;22.38;;;15.02;;
55053;SDS011;40954;45.668;18.980;2022-08-19T05:50:45;16.45;;;7.95;;
55053;SDS011;40954;45.668;18.980;2022-08-19T05:53:15;21.67;;;8.15;;
55053;SDS011;40954;45.668;18.980;2022-08-19T05:55:41;11.18;;;7.57;;
55053;SDS011;40954;45.668;18.980;2022-08-19T05:58:07;12.32;;;7.38;;
55053;SDS011;40954;45.668;18.980;2022-08-19T06:00:34;13.48;;;8.35;;
55053;SDS011;40954;45.668;18.980;2022-08-19T06:03:00;10.70;;;8.40;;
55053;SDS011;40954;45.668;18.980;2022-08-19T06:05:30;17.98;;;9.57;;
55053;SDS011;40954;45.668;18.980;2022-08-19T06:07:57;20.00;;;9.38;;
55053;SDS011;40954;45.668;18.980;2022-08-19T06:10:27;17.02;;;9.43;;
55053;SDS011;40954;45.668;18.980;2022-08-19T06:12:53;16.23;;;8.48;;
55053;SDS011;40954;45.668;18.980;2022-08-19T06:15:21;22.90;;;16.17;;
55053;SDS011;40954;45.668;18.980;2022-08-19T06:17:50;17.88;;;8.23;;
55053;SDS011;40954;45.668;18.980;2022-08-19T06:20:16;21.17;;;11.15;;
55053;SDS011;40954;45.668;18.980;2022-08-19T06:22:46;17.23;;;7.72;;
55053;SDS011;40954;45.668;18.980;2022-08-19T06:25:14;20.35;;;15.18;;
55053;SDS011;40954;45.668;18.980;2022-08-19T06:27:42;19.90;;;12.10;;
55053;SDS011;40954;45.668;18.980;2022-08-19T06:30:08;21.88;;;17.52;;
55053;SDS011;40954;45.668;18.980;2022-08-19T06:32:36;22.27;;;9.98;;
55053;SDS011;40954;45.668;18.980;2022-08-19T06:35:03;13.98;;;9.43;;
55053;SDS011;40954;45.668;18.980;2022-08-19T06:37:29;21.20;;;8.70;;
55053;SDS011;40954;45.668;18.980;2022-08-19T06:39:55;13.27;;;7.30;;
55053;SDS011;40954;45.668;18.980;2022-08-19T06:42:21;11.95;;;7.03;;
55053;SDS011;40954;45.668;18.980;2022-08-19T06:44:48;14.43;;;6.65;;
55053;SDS011;40954;45.668;18.980;2022-08-19T06:47:16;14.27;;;8.68;;
55053;SDS011;40954;45.668;18.980;2022-08-19T06:49:42;22.55;;;13.85;;
55053;SDS011;40954;45.668;18.980;2022-08-19T06:52:09;8.60;;;6.68;;
55053;SDS011;40954;45.668;18.980;2022-08-19T06:54:37;13.32;;;6.28;;
55053;SDS011;40954;45.668;18.980;2022-08-19T06:57:04;19.15;;;8.80;;
55053;SDS011;40954;45.668;18.980;2022-08-19T06:59:31;14.48;;;7.30;;
55053;SDS011;40954;45.668;18.980;2022-08-19T07:01:58;9.93;;;7.00;;
55053;SDS011;40954;45.668;18.980;2022-08-19T07:04:26;15.13;;;8.18;;
55053;SDS011;40954;45.668;18.980;2022-08-19T07:06:59;15.80;;;7.88;;
55053;SDS011;40954;45.668;18.980;2022-08-19T07:09:26;15.13;;;7.22;;
55053;SDS011;40954;45.668;18.980;2022-08-19T07:11:53;13.32;;;7.60;;
55053;SDS011;40954;45.668;18.980;2022-08-19T07:14:21;11.52;;;8.18;;
55053;SDS011;40954;45.668;18.980;2022-08-19T07:16:48;16.60;;;7.82;;
55053;SDS011;40954;45.668;18.980;2022-08-19T07:19:15;15.48;;;7.57;;
55053;SDS011;40954;45.668;18.980;2022-08-19T07:21:41;10.68;;;8.43;;
55053;SDS011;40954;45.668;18.980;2022-08-19T07:24:07;12.90;;;8.68;;
55053;SDS011;40954;45.668;18.980;2022-08-19T07:26:38;12.32;;;7.40;;
55053;SDS011;40954;45.668;18.980;2022-08-19T07:29:04;18.23;;;8.57;;
55053;SDS011;40954;45.668;18.980;2022-08-19T07:31:30;14.63;;;8.07;;
55053;SDS011;40954;45.668;18.980;2022-08-19T07:34:00;22.23;;;8.30;;
55053;SDS011;40954;45.668;18.980;2022-08-19T07:36:27;17.77;;;7.80;;
55053;SDS011;40954;45.668;18.980;2022-08-19T07:38:58;20.40;;;8.10;;
55053;SDS011;40954;45.668;18.980;2022-08-19T07:41:26;12.23;;;8.35;;
55053;SDS011;40954;45.668;18.980;2022-08-19T07:43:53;14.35;;;7.70;;
55053;SDS011;40954;45.668;18.980;2022-08-19T07:46:19;18.10;;;8.15;;
55053;SDS011;40954;45.668;18.980;2022-08-19T07:48:46;11.23;;;7.18;;
55053;SDS011;40954;45.668;18.980;2022-08-19T07:51:13;13.48;;;8.95;;
55053;SDS011;40954;45.668;18.980;2022-08-19T07:53:40;14.45;;;7.95;;
55053;SDS011;40954;45.668;18.980;2022-08-19T07:56:06;12.45;;;8.93;;
55053;SDS011;40954;45.668;18.980;2022-08-19T07:58:37;11.93;;;8.82;;
55053;SDS011;40954;45.668;18.980;2022-08-19T08:01:04;14.90;;;9.45;;
55053;SDS011;40954;45.668;18.980;2022-08-19T08:03:31;16.52;;;8.35;;
55053;SDS011;40954;45.668;18.980;2022-08-19T08:06:36;12.15;;;9.05;;
55053;SDS011;40954;45.668;18.980;2022-08-19T08:09:22;13.40;;;9.63;;
55053;SDS011;40954;45.668;18.980;2022-08-19T08:14:19;12.90;;;9.18;;
55053;SDS011;40954;45.668;18.980;2022-08-19T08:16:47;13.13;;;9.73;;
55053;SDS011;40954;45.668;18.980;2022-08-19T08:19:15;11.18;;;9.52;;
55053;SDS011;40954;45.668;18.980;2022-08-19T08:21:41;10.73;;;8.55;;
55053;SDS011;40954;45.668;18.980;2022-08-19T08:24:07;11.70;;;9.38;;
55053;SDS011;40954;45.668;18.980;2022-08-19T08:26:33;12.35;;;9.60;;
55053;SDS011;40954;45.668;18.980;2022-08-19T08:28:59;14.32;;;9.68;;
55053;SDS011;40954;45.668;18.980;2022-08-19T08:31:26;12.23;;;6.93;;
55053;SDS011;40954;45.668;18.980;2022-08-19T08:33:53;11.80;;;8.32;;
55053;SDS011;40954;45.668;18.980;2022-08-19T08:36:19;12.30;;;7.53;;
55053;SDS011;40954;45.668;18.980;2022-08-19T08:38:46;10.32;;;6.95;;
55053;SDS011;40954;45.668;18.980;2022-08-19T08:43:48;14.65;;;7.72;;
55053;SDS011;40954;45.668;18.980;2022-08-19T08:46:26;11.10;;;7.45;;
55053;SDS011;40954;45.668;18.980;2022-08-19T08:49:07;12.18;;;6.40;;
55053;SDS011;40954;45.668;18.980;2022-08-19T08:54:07;10.45;;;6.93;;
55053;SDS011;40954;45.668;18.980;2022-08-19T08:56:33;10.63;;;6.45;;
55053;SDS011;40954;45.668;18.980;2022-08-19T08:59:01;7.85;;;5.20;;
55053;SDS011;40954;45.668;18.980;2022-08-19T09:01:28;9.05;;;5.68;;
55053;SDS011;40954;45.668;18.980;2022-08-19T09:03:54;9.48;;;5.55;;
55053;SDS011;40954;45.668;18.980;2022-08-19T09:11:40;10.40;;;4.97;;
55053;SDS011;40954;45.668;18.980;2022-08-19T09:16:36;8.50;;;5.25;;
55053;SDS011;40954;45.668;18.980;2022-08-19T09:19:05;11.98;;;5.45;;
55053;SDS011;40954;45.668;18.980;2022-08-19T09:21:32;9.73;;;4.85;;
55053;SDS011;40954;45.668;18.980;2022-08-19T09:23:59;6.82;;;5.30;;
55053;SDS011;40954;45.668;18.980;2022-08-19T09:26:25;9.32;;;4.80;;
55053;SDS011;40954;45.668;18.980;2022-08-19T09:28:52;5.88;;;4.50;;
55053;SDS011;40954;45.668;18.980;2022-08-19T09:31:20;6.78;;;4.93;;
55053;SDS011;40954;45.668;18.980;2022-08-19T09:33:47;12.30;;;5.60;;
55053;SDS011;40954;45.668;18.980;2022-08-19T09:36:14;12.77;;;4.70;;
55053;SDS011;40954;45.668;18.980;2022-08-19T09:38:40;10.13;;;4.93;;
55053;SDS011;40954;45.668;18.980;2022-08-19T09:41:08;9.02;;;5.20;;
55053;SDS011;40954;45.668;18.980;2022-08-19T09:43:36;10.38;;;4.93;;
55053;SDS011;40954;45.668;18.980;2022-08-19T09:46:03;9.55;;;4.68;;
55053;SDS011;40954;45.668;18.980;2022-08-19T09:48:34;12.05;;;4.60;;
55053;SDS011;40954;45.668;18.980;2022-08-19T09:51:04;7.07;;;4.63;;
55053;SDS011;40954;45.668;18.980;2022-08-19T09:53:31;10.25;;;4.68;;
55053;SDS011;40954;45.668;18.980;2022-08-19T09:55:57;9.10;;;5.00;;
55053;SDS011;40954;45.668;18.980;2022-08-19T09:58:24;6.47;;;4.28;;
55053;SDS011;40954;45.668;18.980;2022-08-19T10:00:53;14.93;;;5.80;;
55053;SDS011;40954;45.668;18.980;2022-08-19T10:03:19;12.80;;;5.32;;
55053;SDS011;40954;45.668;18.980;2022-08-19T10:05:45;11.63;;;5.00;;
55053;SDS011;40954;45.668;18.980;2022-08-19T10:08:19;13.27;;;4.63;;
55053;SDS011;40954;45.668;18.980;2022-08-19T10:10:46;7.18;;;4.15;;
55053;SDS011;40954;45.668;18.980;2022-08-19T10:13:14;8.63;;;4.65;;
55053;SDS011;40954;45.668;18.980;2022-08-19T10:15:40;11.30;;;3.97;;
55053;SDS011;40954;45.668;18.980;2022-08-19T10:18:06;8.55;;;4.68;;
55053;SDS011;40954;45.668;18.980;2022-08-19T10:20:33;5.30;;;4.03;;
55053;SDS011;40954;45.668;18.980;2022-08-19T10:23:01;6.47;;;4.40;;
55053;SDS011;40954;45.668;18.980;2022-08-19T10:25:27;10.07;;;4.28;;
55053;SDS011;40954;45.668;18.980;2022-08-19T10:27:53;7.82;;;4.68;;
55053;SDS011;40954;45.668;18.980;2022-08-19T10:30:21;9.57;;;4.38;;
55053;SDS011;40954;45.668;18.980;2022-08-19T10:32:47;4.93;;;4.03;;
55053;SDS011;40954;45.668;18.980;2022-08-19T10:35:13;7.07;;;4.28;;
55053;SDS011;40954;45.668;18.980;2022-08-19T10:37:40;9.70;;;4.07;;
55053;SDS011;40954;45.668;18.980;2022-08-19T10:40:06;8.18;;;3.97;;
55053;SDS011;40954;45.668;18.980;2022-08-19T10:42:34;14.02;;;3.88;;
55053;SDS011;40954;45.668;18.980;2022-08-19T10:45:00;7.03;;;3.70;;
55053;SDS011;40954;45.668;18.980;2022-08-19T10:47:26;6.72;;;4.03;;
55053;SDS011;40954;45.668;18.980;2022-08-19T10:49:53;10.90;;;4.82;;
55053;SDS011;40954;45.668;18.980;2022-08-19T10:52:48;7.75;;;4.78;;
55053;SDS011;40954;45.668;18.980;2022-08-19T10:55:14;6.32;;;3.60;;
55053;SDS011;40954;45.668;18.980;2022-08-19T10:57:58;10.45;;;4.28;;
55053;SDS011;40954;45.668;18.980;2022-08-19T11:00:25;9.52;;;3.72;;
55053;SDS011;40954;45.668;18.980;2022-08-19T11:02:51;6.65;;;3.50;;
55053;SDS011;40954;45.668;18.980;2022-08-19T11:05:18;4.55;;;3.28;;
55053;SDS011;40954;45.668;18.980;2022-08-19T11:07:44;5.30;;;3.47;;
55053;SDS011;40954;45.668;18.980;2022-08-19T11:10:11;4.18;;;3.50;;
55053;SDS011;40954;45.668;18.980;2022-08-19T11:12:38;8.93;;;3.83;;
55053;SDS011;40954;45.668;18.980;2022-08-19T11:15:05;7.25;;;3.92;;
55053;SDS011;40954;45.668;18.980;2022-08-19T11:17:33;9.95;;;4.43;;
55053;SDS011;40954;45.668;18.980;2022-08-19T11:19:59;7.10;;;4.10;;
55053;SDS011;40954;45.668;18.980;2022-08-19T11:22:28;9.10;;;5.32;;
55053;SDS011;40954;45.668;18.980;2022-08-19T11:24:54;7.93;;;4.65;;
55053;SDS011;40954;45.668;18.980;2022-08-19T11:27:20;9.68;;;4.10;;
55053;SDS011;40954;45.668;18.980;2022-08-19T11:29:46;8.10;;;4.60;;
55053;SDS011;40954;45.668;18.980;2022-08-19T11:32:13;7.97;;;4.40;;
55053;SDS011;40954;45.668;18.980;2022-08-19T11:34:40;10.88;;;4.10;;
55053;SDS011;40954;45.668;18.980;2022-08-19T11:37:06;11.80;;;3.63;;
55053;SDS011;40954;45.668;18.980;2022-08-19T11:39:33;7.70;;;3.70;;
55053;SDS011;40954;45.668;18.980;2022-08-19T11:42:00;6.97;;;4.25;;
55053;SDS011;40954;45.668;18.980;2022-08-19T11:44:28;7.75;;;3.60;;
55053;SDS011;40954;45.668;18.980;2022-08-19T11:46:55;12.90;;;4.68;;
55053;SDS011;40954;45.668;18.980;2022-08-19T11:49:21;16.65;;;5.22;;
55053;SDS011;40954;45.668;18.980;2022-08-19T11:51:47;11.18;;;4.18;;
55053;SDS011;40954;45.668;18.980;2022-08-19T11:54:15;14.20;;;4.45;;
55053;SDS011;40954;45.668;18.980;2022-08-19T11:56:42;11.38;;;4.65;;
55053;SDS011;40954;45.668;18.980;2022-08-19T11:59:08;17.48;;;5.03;;
55053;SDS011;40954;45.668;18.980;2022-08-19T12:01:35;20.02;;;5.00;;
55053;SDS011;40954;45.668;18.980;2022-08-19T12:04:02;19.98;;;5.80;;
55053;SDS011;40954;45.668;18.980;2022-08-19T12:06:30;14.15;;;4.93;;
55053;SDS011;40954;45.668;18.980;2022-08-19T12:09:00;11.80;;;4.47;;
55053;SDS011;40954;45.668;18.980;2022-08-19T12:11:27;11.27;;;4.95;;
55053;SDS011;40954;45.668;18.980;2022-08-19T12:13:53;9.82;;;4.70;;
55053;SDS011;40954;45.668;18.980;2022-08-19T12:16:21;14.05;;;4.88;;
55053;SDS011;40954;45.668;18.980;2022-08-19T12:18:48;18.88;;;5.25;;
55053;SDS011;40954;45.668;18.980;2022-08-19T12:21:16;13.60;;;5.15;;
55053;SDS011;40954;45.668;18.980;2022-08-19T12:23:43;10.45;;;4.57;;
55053;SDS011;40954;45.668;18.980;2022-08-19T12:26:13;14.18;;;5.15;;
55053;SDS011;40954;45.668;18.980;2022-08-19T12:28:39;11.40;;;4.30;;
55053;SDS011;40954;45.668;18.980;2022-08-19T12:31:06;11.43;;;4.53;;
55053;SDS011;40954;45.668;18.980;2022-08-19T12:33:33;11.02;;;4.47;;
55053;SDS011;40954;45.668;18.980;2022-08-19T12:36:00;19.33;;;4.90;;
55053;SDS011;40954;45.668;18.980;2022-08-19T12:38:26;23.35;;;5.05;;
55053;SDS011;40954;45.668;18.980;2022-08-19T12:40:52;14.52;;;4.10;;
55053;SDS011;40954;45.668;18.980;2022-08-19T12:43:18;25.20;;;4.60;;
55053;SDS011;40954;45.668;18.980;2022-08-19T12:45:45;11.90;;;4.45;;
55053;SDS011;40954;45.668;18.980;2022-08-19T12:48:11;16.30;;;4.80;;
55053;SDS011;40954;45.668;18.980;2022-08-19T12:50:41;16.00;;;4.75;;
55053;SDS011;40954;45.668;18.980;2022-08-19T12:53:07;17.60;;;4.50;;
55053;SDS011;40954;45.668;18.980;2022-08-19T12:55:33;18.90;;;5.30;;
55053;SDS011;40954;45.668;18.980;2022-08-19T12:57:59;18.65;;;4.72;;
55053;SDS011;40954;45.668;18.980;2022-08-19T13:00:28;14.63;;;4.43;;
55053;SDS011;40954;45.668;18.980;2022-08-19T13:02:56;13.02;;;4.20;;
55053;SDS011;40954;45.668;18.980;2022-08-19T13:05:23;16.92;;;4.35;;
55053;SDS011;40954;45.668;18.980;2022-08-19T13:07:50;13.48;;;4.13;;
55053;SDS011;40954;45.668;18.980;2022-08-19T13:10:18;17.25;;;4.88;;
55053;SDS011;40954;45.668;18.980;2022-08-19T13:12:45;12.18;;;4.28;;
55053;SDS011;40954;45.668;18.980;2022-08-19T13:15:12;17.83;;;4.47;;
55053;SDS011;40954;45.668;18.980;2022-08-19T13:17:38;17.23;;;4.28;;
55053;SDS011;40954;45.668;18.980;2022-08-19T13:20:06;11.30;;;3.47;;
55053;SDS011;40954;45.668;18.980;2022-08-19T13:22:33;23.17;;;4.55;;
55053;SDS011;40954;45.668;18.980;2022-08-19T13:25:01;15.63;;;4.65;;
55053;SDS011;40954;45.668;18.980;2022-08-19T13:27:28;19.52;;;3.92;;
55053;SDS011;40954;45.668;18.980;2022-08-19T13:29:54;23.80;;;4.82;;
55053;SDS011;40954;45.668;18.980;2022-08-19T13:32:39;27.50;;;5.78;;
55053;SDS011;40954;45.668;18.980;2022-08-19T13:35:23;22.38;;;4.93;;
55053;SDS011;40954;45.668;18.980;2022-08-19T13:37:49;20.55;;;4.10;;
55053;SDS011;40954;45.668;18.980;2022-08-19T13:40:17;12.65;;;3.72;;
55053;SDS011;40954;45.668;18.980;2022-08-19T13:42:47;16.38;;;3.95;;
55053;SDS011;40954;45.668;18.980;2022-08-19T13:45:17;20.58;;;4.70;;
55053;SDS011;40954;45.668;18.980;2022-08-19T13:50:11;21.33;;;4.07;;
55053;SDS011;40954;45.668;18.980;2022-08-19T13:52:38;21.92;;;4.93;;
55053;SDS011;40954;45.668;18.980;2022-08-19T13:55:05;22.83;;;4.40;;
55053;SDS011;40954;45.668;18.980;2022-08-19T13:57:31;13.95;;;3.38;;
55053;SDS011;40954;45.668;18.980;2022-08-19T13:59:58;20.00;;;4.10;;
55053;SDS011;40954;45.668;18.980;2022-08-19T14:02:24;14.82;;;3.85;;
55053;SDS011;40954;45.668;18.980;2022-08-19T14:04:51;12.95;;;3.20;;
55053;SDS011;40954;45.668;18.980;2022-08-19T14:07:17;10.75;;;2.85;;
55053;SDS011;40954;45.668;18.980;2022-08-19T14:09:43;11.52;;;3.13;;
55053;SDS011;40954;45.668;18.980;2022-08-19T14:12:09;17.42;;;4.22;;
55053;SDS011;40954;45.668;18.980;2022-08-19T14:14:36;9.15;;;2.95;;
55053;SDS011;40954;45.668;18.980;2022-08-19T14:17:05;8.93;;;3.28;;
55053;SDS011;40954;45.668;18.980;2022-08-19T14:19:31;10.80;;;3.50;;
55053;SDS011;40954;45.668;18.980;2022-08-19T14:21:57;7.85;;;3.38;;
55053;SDS011;40954;45.668;18.980;2022-08-19T14:24:23;16.50;;;3.50;;
55053;SDS011;40954;45.668;18.980;2022-08-19T14:26:49;10.85;;;3.53;;
55053;SDS011;40954;45.668;18.980;2022-08-19T14:29:16;11.40;;;2.80;;
55053;SDS011;40954;45.668;18.980;2022-08-19T14:31:42;13.65;;;3.15;;
55053;SDS011;40954;45.668;18.980;2022-08-19T14:34:09;11.43;;;3.35;;
55053;SDS011;40954;45.668;18.980;2022-08-19T14:36:35;9.23;;;2.97;;
55053;SDS011;40954;45.668;18.980;2022-08-19T14:39:01;16.88;;;4.07;;
55053;SDS011;40954;45.668;18.980;2022-08-19T14:41:27;10.75;;;2.80;;
55053;SDS011;40954;45.668;18.980;2022-08-19T14:43:55;13.95;;;3.30;;
55053;SDS011;40954;45.668;18.980;2022-08-19T14:46:23;20.20;;;3.67;;